^^
Station Historical Data
Daily Summary for January 27, 2018 Units:  Metric    English   Both
« Previous Day
Next Day »
Daily Weekly Monthly Yearly Custom
  High: Low: Average:
Temperature: -17.8 °C 16.7 °C 24.5 °C
Dew Point: -17.8 °C 1 °C 6.7 °C
Humidity: Humidity% 18% 33%
Wind Speed: 0km/h 0km/h 2.4km/h
Wind Gust: 0km/h - -
Wind- - SW
Pressure: 0 hPa 1001.2 hPa -
Precipitation: 0 mm    
Historical Graphs
 
 
Tabular Data for January 27, 2018
Time Temperature Dew Point Pressure Wind Wind Speed Wind Gust Humidity Rainfall Rate (Hourly) solar Conditions
-17.8 °C -17.8 °C 0 hPa Calm     Humidity% 0 mm SolarRadiationWatts/m^2 W/m2 Conditions
00:02 21.6 °C 3.3 °C 1005 hPa SE 3.2 km/h 4.8 km/h 30% 0 mm 0.0 W/m2
00:07 21.6 °C 3.3 °C 1005 hPa SE 4.7 km/h 6.4 km/h 30% 0 mm 0.0 W/m2
00:12 21.6 °C 3.3 °C 1005 hPa Calm   4.8 km/h 30% 0 mm 0.0 W/m2
00:17 21.6 °C 3.3 °C 1004.6 hPa Calm   1.6 km/h 30% 0 mm 0.0 W/m2
00:22 21.6 °C 2.8 °C 1004.6 hPa SE 1.4 km/h 8 km/h 29% 0 mm 0.0 W/m2
00:27 21.6 °C 3.3 °C 1004.6 hPa Calm   1.6 km/h 30% 0 mm 0.0 W/m2
00:32 21.6 °C 3.3 °C 1004.6 hPa Calm   3.2 km/h 30% 0 mm 0.0 W/m2
00:37 21.6 °C 3.3 °C 1005 hPa Calm     30% 0 mm 0.0 W/m2
00:42 21.5 °C 2.7 °C 1005 hPa Calm   1.6 km/h 29% 0 mm 0.0 W/m2
00:47 21.5 °C 3.2 °C 1005 hPa Calm     30% 0 mm 0.0 W/m2
00:53 21.4 °C 3.1 °C 1005 hPa Calm     30% 0 mm 0.0 W/m2
00:58 21.3 °C 3.5 °C 1005 hPa Calm     31% 0 mm 0.0 W/m2
01:03 21.2 °C 2.9 °C 1005 hPa Calm   1.6 km/h 30% 0 mm 0.0 W/m2
01:08 21.2 °C 3.4 °C 1005 hPa Calm     31% 0 mm 0.0 W/m2
01:13 21.1 °C 2.8 °C 1005 hPa SSE 3.2 km/h 8 km/h 30% 0 mm 0.0 W/m2
01:18 21.1 °C 2.8 °C 1005 hPa Calm     30% 0 mm 0.0 W/m2
01:23 21.1 °C 3.3 °C 1005 hPa Calm     31% 0 mm 0.0 W/m2
01:28 21.1 °C 3.3 °C 1005 hPa Calm     31% 0 mm 0.0 W/m2
01:34 20.9 °C 2.7 °C 1004.6 hPa Calm   1.6 km/h 30% 0 mm 0.0 W/m2
01:39 20.9 °C 2.7 °C 1004.6 hPa Calm   3.2 km/h 30% 0 mm 0.0 W/m2
01:44 20.9 °C 2.2 °C 1004.6 hPa Calm     29% 0 mm 0.0 W/m2
01:49 20.9 °C 2.2 °C 1004.6 hPa Calm     29% 0 mm 0.0 W/m2
01:54 20.9 °C 2.2 °C 1004.6 hPa Calm   1.6 km/h 29% 0 mm 0.0 W/m2
01:59 20.9 °C 2.2 °C 1004.6 hPa SE 1.4 km/h 8 km/h 29% 0 mm 0.0 W/m2
02:04 21.1 °C 2.4 °C 1004.6 hPa Calm   3.2 km/h 29% 0 mm 0.0 W/m2
02:09 21.1 °C 2.4 °C 1004.6 hPa South 1.4 km/h 1.6 km/h 29% 0 mm 0.0 W/m2
02:15 21.2 °C 2.9 °C 1004.6 hPa SSE 3.2 km/h 4.8 km/h 30% 0 mm 0.0 W/m2
02:20 21.3 °C 3 °C 1004.6 hPa SE 1.4 km/h 1.6 km/h 30% 0 mm 0.0 W/m2
02:25 21.3 °C 3 °C 1004.6 hPa Calm     30% 0 mm 0.0 W/m2
02:30 21.3 °C 3 °C 1004.6 hPa Calm   6.4 km/h 30% 0 mm 0.0 W/m2
02:35 21 °C 3.2 °C 1004.6 hPa ENE 6.4 km/h 11.3 km/h 31% 0 mm 0.0 W/m2
02:40 20.7 °C 3.4 °C 1004.6 hPa ENE 1.4 km/h 8 km/h 32% 0 mm 0.0 W/m2
02:45 20.5 °C 3.2 °C 1004.6 hPa East 3.2 km/h 9.7 km/h 32% 0 mm 0.0 W/m2
02:50 20.2 °C 3 °C 1005 hPa NNE 3.2 km/h 6.4 km/h 32% 0 mm 0.0 W/m2
02:56 19.9 °C 3.1 °C 1004.6 hPa Calm   6.4 km/h 33% 0 mm 0.0 W/m2
03:01 19.8 °C 3.1 °C 1005 hPa East 1.4 km/h 3.2 km/h 33% 0 mm 0.0 W/m2
03:06 19.7 °C 3.4 °C 1005 hPa NE 1.4 km/h 6.4 km/h 34% 0 mm 0.0 W/m2
03:11 19.6 °C 3.3 °C 1005 hPa East 1.4 km/h 6.4 km/h 34% 0 mm 0.0 W/m2
03:16 19.5 °C 3.2 °C 1005 hPa Calm   1.6 km/h 34% 0 mm 0.0 W/m2
03:21 19.4 °C 3.1 °C 1005 hPa Calm   3.2 km/h 34% 0 mm 0.0 W/m2
03:26 19.3 °C 3 °C 1005.3 hPa East 1.4 km/h 6.4 km/h 34% 0 mm 0.0 W/m2
03:31 19.3 °C 3 °C 1005.3 hPa North 3.2 km/h 9.7 km/h 34% 0 mm 0.0 W/m2
03:36 19.2 °C 3 °C 1005.3 hPa Calm   4.8 km/h 34% 0 mm 0.0 W/m2
03:42 19.2 °C 3 °C 1005.6 hPa Calm   1.6 km/h 34% 0 mm 0.0 W/m2
03:47 19.1 °C 3.3 °C 1005.6 hPa Calm   3.2 km/h 35% 0 mm 0.0 W/m2
03:52 19 °C 3.2 °C 1005.6 hPa Calm   1.6 km/h 35% 0 mm 0.0 W/m2
03:57 18.9 °C 3.1 °C 1005.6 hPa Calm   1.6 km/h 35% 0 mm 0.0 W/m2
04:02 18.8 °C 3 °C 1005.6 hPa ENE 1.4 km/h 1.6 km/h 35% 0 mm 0.0 W/m2
04:07 18.7 °C 3.3 °C 1005.3 hPa Calm   1.6 km/h 36% 0 mm 0.0 W/m2
04:12 18.6 °C 3.2 °C 1005.6 hPa Calm   1.6 km/h 36% 0 mm 0.0 W/m2
04:18 18.4 °C 3.1 °C 1005.3 hPa Calm     36% 0 mm 0.0 W/m2
04:23 18.3 °C 2.6 °C 1005.3 hPa Calm   4.8 km/h 35% 0 mm 0.0 W/m2
04:28 18.3 °C 2.6 °C 1005.3 hPa Calm   1.6 km/h 35% 0 mm 0.0 W/m2
04:34 18.2 °C 2.9 °C 1005.3 hPa Calm   1.6 km/h 36% 0 mm 0.0 W/m2
04:40 18.1 °C 2.8 °C 1005.3 hPa Calm   3.2 km/h 36% 0 mm 0.0 W/m2
04:45 18.1 °C 3.2 °C 1005.3 hPa Calm     37% 0 mm 0.0 W/m2
04:50 17.9 °C 3 °C 1005.3 hPa Calm     37% 0 mm 0.0 W/m2
04:55 17.9 °C 3 °C 1005.3 hPa Calm   1.6 km/h 37% 0 mm 0.0 W/m2
05:00 17.8 °C 2.5 °C 1005.3 hPa ENE 3.2 km/h 3.2 km/h 36% 0 mm 0.0 W/m2
05:05 17.7 °C 2 °C 1005.3 hPa Calm   1.6 km/h 35% 0 mm 0.0 W/m2
05:10 17.7 °C 1.6 °C 1005.6 hPa Calm   1.6 km/h 34% 0 mm 0.0 W/m2
05:15 17.7 °C 2 °C 1005.6 hPa Calm     35% 0 mm 0.0 W/m2
05:21 17.6 °C 2 °C 1005.6 hPa Calm   1.6 km/h 35% 0 mm 0.0 W/m2
05:26 17.6 °C 2 °C 1005.6 hPa Calm     35% 0 mm 0.0 W/m2
05:31 17.4 °C 1.8 °C 1005.6 hPa Calm     35% 0 mm 0.0 W/m2
05:36 17.4 °C 2.2 °C 1005.6 hPa Calm     36% 0 mm 0.0 W/m2
05:41 17.4 °C 1.8 °C 1005.6 hPa Calm   3.2 km/h 35% 0 mm 0.0 W/m2
05:46 17.3 °C 1.3 °C 1005.6 hPa NE 1.4 km/h 1.6 km/h 34% 0 mm 0.0 W/m2
05:51 17.4 °C 1.4 °C 1005.6 hPa Calm   1.6 km/h 34% 0 mm 0.0 W/m2
05:56 17.4 °C 1 °C 1005.6 hPa Calm   1.6 km/h 33% 0 mm 0.0 W/m2
06:02 17.4 °C 1.4 °C 1006 hPa SSW 1.4 km/h 4.8 km/h 34% 0 mm 0.0 W/m2
06:07 17.6 °C 1.5 °C 1006 hPa Calm   1.6 km/h 34% 0 mm 0.0 W/m2
06:12 17.6 °C 1.5 °C 1006 hPa Calm   1.6 km/h 34% 0 mm 0.0 W/m2
06:17 17.6 °C 2 °C 1006 hPa Calm     35% 0 mm 0.0 W/m2
06:22 17.6 °C 2.3 °C 1006 hPa Calm     36% 0 mm 0.0 W/m2
06:27 17.4 °C 2.2 °C 1006.3 hPa Calm     36% 0 mm 0.0 W/m2
06:32 17.4 °C 2.2 °C 1006.3 hPa Calm   1.6 km/h 36% 0 mm 0.0 W/m2
06:37 17.2 °C 2 °C 1006.3 hPa Calm     36% 0 mm 5.0 W/m2
06:42 17.1 °C 1.9 °C 1006.3 hPa Calm     36% 0 mm 7.0 W/m2
06:47 17.1 °C 2.3 °C 1006.3 hPa Calm     37% 0 mm 9.0 W/m2
06:53 16.9 °C 2.1 °C 1006.3 hPa Calm     37% 0 mm 12.0 W/m2
06:58 16.9 °C 2.9 °C 1006.7 hPa Calm     39% 0 mm 16.0 W/m2
07:03 16.8 °C 2.8 °C 1006.7 hPa Calm     39% 0 mm 19.0 W/m2
07:08 16.7 °C 2.7 °C 1006.7 hPa Calm   1.6 km/h 39% 0 mm 21.0 W/m2
07:13 16.7 °C 3.4 °C 1007 hPa SSE 3.2 km/h 4.8 km/h 41% 0 mm 21.0 W/m2
07:18 16.7 °C 1.9 °C 1006.7 hPa Calm   1.6 km/h 37% 0 mm 25.0 W/m2
07:23 16.9 °C 2.9 °C 1007 hPa Calm     39% 0 mm 26.0 W/m2
07:28 17.1 °C 3.4 °C 1007 hPa Calm     40% 0 mm 28.0 W/m2
07:34 17.2 °C 3.1 °C 1007 hPa Calm     39% 0 mm 30.0 W/m2
07:39 17.3 °C 2.8 °C 1007 hPa Calm     38% 0 mm 32.0 W/m2
07:44 17.5 °C 3.7 °C 1007 hPa Calm   1.6 km/h 40% 0 mm 118.0 W/m2
07:49 17.8 °C 3.7 °C 1007 hPa Calm   1.6 km/h 39% 0 mm 257.0 W/m2
07:54 18.2 °C 4.4 °C 1007 hPa Calm     40% 0 mm 130.0 W/m2
07:59 18.7 °C 5.5 °C 1007 hPa NE 1.4 km/h 4.8 km/h 42% 0 mm 262.0 W/m2
08:04 19.3 °C 8 °C 1007.3 hPa NNW 1.4 km/h 4.8 km/h 48% 0 mm 220.0 W/m2
08:09 19.8 °C 7.5 °C 1007.3 hPa Calm   1.6 km/h 45% 0 mm 355.0 W/m2
08:15 20.3 °C 6.6 °C 1007.3 hPa NNW 6.4 km/h 6.4 km/h 41% 0 mm 364.0 W/m2
08:20 20.8 °C 6.3 °C 1007.3 hPa North 1.4 km/h 4.8 km/h 39% 0 mm 343.0 W/m2
08:25 21.4 °C 5.3 °C 1007 hPa Calm   3.2 km/h 35% 0 mm 353.0 W/m2
08:30 22 °C 8.1 °C 1007 hPa NNW 3.2 km/h 8 km/h 41% 0 mm 332.0 W/m2
08:35 22.4 °C 9.5 °C 1007 hPa NNW 1.4 km/h 8 km/h 44% 0 mm 301.0 W/m2
08:40 22.7 °C 8.8 °C 1007 hPa NNW 3.2 km/h 9.7 km/h 41% 0 mm 452.0 W/m2
08:45 22.9 °C 9.7 °C 1007 hPa NW 7.9 km/h 8 km/h 43% 0 mm 367.0 W/m2
08:50 22.9 °C 10 °C 1007 hPa NNW 4.7 km/h 9.7 km/h 44% 0 mm 380.0 W/m2
08:56 23.1 °C 10.5 °C 1007 hPa Calm   4.8 km/h 45% 0 mm 387.0 W/m2
09:01 23.1 °C 10.8 °C 1006.7 hPa Calm   9.7 km/h 46% 0 mm 309.0 W/m2
09:06 23.2 °C 11.3 °C 1006.7 hPa NNW 3.2 km/h 6.4 km/h 47% 0 mm 323.0 W/m2
09:11 23.3 °C 11.4 °C 1006.7 hPa NW 3.2 km/h 4.8 km/h 47% 0 mm 376.0 W/m2
09:16 23.4 °C 11.1 °C 1006.7 hPa West 4.7 km/h 4.8 km/h 46% 0 mm 360.0 W/m2
09:21 23.4 °C 11.1 °C 1006.7 hPa NNE 4.7 km/h 4.8 km/h 46% 0 mm 489.0 W/m2
09:26 23.5 °C 11.2 °C 1006.3 hPa WSW 1.4 km/h 3.2 km/h 46% 0 mm 459.0 W/m2
09:31 23.6 °C 11.3 °C 1006.3 hPa WSW 1.4 km/h 4.8 km/h 46% 0 mm 513.0 W/m2
09:36 23.7 °C 11.1 °C 1006.3 hPa WSW 3.2 km/h 8 km/h 45% 0 mm 541.0 W/m2
09:41 23.8 °C 11.2 °C 1006.3 hPa Calm   1.6 km/h 45% 0 mm 520.0 W/m2
09:47 23.9 °C 10.9 °C 1006.3 hPa Calm   4.8 km/h 44% 0 mm 543.0 W/m2
09:52 24.1 °C 10.7 °C 1006.3 hPa NW 1.4 km/h 3.2 km/h 43% 0 mm 506.0 W/m2
09:57 24.3 °C 10.6 °C 1006.3 hPa Calm   3.2 km/h 42% 0 mm 666.0 W/m2
10:02 24.4 °C 11 °C 1006.3 hPa West 3.2 km/h 4.8 km/h 43% 0 mm 715.0 W/m2
10:07 24.5 °C 10.7 °C 1006.3 hPa SW 1.4 km/h 6.4 km/h 42% 0 mm 564.0 W/m2
10:12 24.5 °C 10.7 °C 1006 hPa Calm   3.2 km/h 42% 0 mm 745.0 W/m2
10:17 24.6 °C 10.5 °C 1006 hPa North 1.4 km/h 8 km/h 41% 0 mm 773.0 W/m2
10:22 24.9 °C 10.7 °C 1006 hPa SSW 4.7 km/h 8 km/h 41% 0 mm 893.0 W/m2
10:28 25.1 °C 10.6 °C 1006 hPa South 1.4 km/h 9.7 km/h 40% 0 mm 902.0 W/m2
10:33 25.4 °C 10.4 °C 1005.6 hPa SSW 6.4 km/h 6.4 km/h 39% 0 mm 914.0 W/m2
10:38 25.9 °C 10.1 °C 1005.6 hPa SW 3.2 km/h 3.2 km/h 37% 0 mm 925.0 W/m2
10:43 26.4 °C 10.1 °C 1005.6 hPa Calm   9.7 km/h 36% 0 mm 935.0 W/m2
10:48 26.6 °C 9.9 °C 1005.6 hPa WSW 3.2 km/h 4.8 km/h 35% 0 mm 939.0 W/m2
10:53 26.8 °C 9.6 °C 1005.6 hPa West 3.2 km/h 4.8 km/h 34% 0 mm 949.0 W/m2
10:58 27.2 °C 9.5 °C 1005.6 hPa Calm   3.2 km/h 33% 0 mm 960.0 W/m2
11:04 27.8 °C 9.1 °C 1005.6 hPa West 1.4 km/h 11.3 km/h 31% 0 mm 916.0 W/m2
11:09 27.7 °C 9 °C 1005.6 hPa WSW 3.2 km/h 8 km/h 31% 0 mm 896.0 W/m2
11:15 27.6 °C 8.5 °C 1005.3 hPa Calm   3.2 km/h 30% 0 mm 911.0 W/m2
11:20 27.9 °C 8.7 °C 1005.3 hPa WSW 4.7 km/h 9.7 km/h 30% 0 mm 1005.0 W/m2
11:25 28.2 °C 8.5 °C 1005.6 hPa West 4.7 km/h 11.3 km/h 29% 0 mm 969.0 W/m2
11:30 28.3 °C 8 °C 1005.3 hPa West 3.2 km/h 6.4 km/h 28% 0 mm 930.0 W/m2
11:35 28.7 °C 7.9 °C 1005.3 hPa Calm   6.4 km/h 27% 0 mm 983.0 W/m2
11:40 29.2 °C 7.7 °C 1005.3 hPa Calm   11.3 km/h 26% 0 mm 1020.0 W/m2
11:45 29.6 °C 7.5 °C 1005.3 hPa SW 1.4 km/h 3.2 km/h 25% 0 mm 986.0 W/m2
11:50 29.9 °C 7.7 °C 1005 hPa SW 4.7 km/h 8 km/h 25% 0 mm 1034.0 W/m2
11:55 29.9 °C 7.1 °C 1005 hPa Calm   4.8 km/h 24% 0 mm 1039.0 W/m2
12:00 30.3 °C 7.5 °C 1005 hPa NNW 1.4 km/h 4.8 km/h 24% 0 mm 1027.0 W/m2
12:06 30.7 °C 7.2 °C 1005 hPa SW 7.9 km/h 12.9 km/h 23% 0 mm 1023.0 W/m2
12:11 30.6 °C 6.5 °C 1005 hPa SSW 1.4 km/h 8 km/h 22% 0 mm 1062.0 W/m2
12:16 30.6 °C 6.5 °C 1005 hPa Calm   12.9 km/h 22% 0 mm 1041.0 W/m2
12:21 30.7 °C 6.5 °C 1004.6 hPa SSW 3.2 km/h 6.4 km/h 22% 0 mm 1053.0 W/m2
12:26 31.1 °C 6.2 °C 1004.6 hPa Calm   9.7 km/h 21% 0 mm 981.0 W/m2
12:32 31.3 °C 6.4 °C 1004.6 hPa WNW 1.4 km/h 6.4 km/h 21% 0 mm 1074.0 W/m2
12:37 31.7 °C 6.7 °C 1004.6 hPa WSW 3.2 km/h 12.9 km/h 21% 0 mm 1060.0 W/m2
12:42 31.8 °C 6.8 °C 1004.6 hPa NNW 1.4 km/h 3.2 km/h 21% 0 mm 1074.0 W/m2
12:47 32.2 °C 7.1 °C 1004.3 hPa NNW 6.4 km/h 9.7 km/h 21% 0 mm 1093.0 W/m2
12:52 32.4 °C 7.3 °C 1004.3 hPa NNW 4.7 km/h 11.3 km/h 21% 0 mm 919.0 W/m2
12:58 32.6 °C 7.4 °C 1004.3 hPa West 4.7 km/h 4.8 km/h 21% 0 mm 1111.0 W/m2
13:03 32.7 °C 6.8 °C 1004.3 hPa West 1.4 km/h 11.3 km/h 20% 0 mm 1095.0 W/m2
13:08 32.6 °C 7.4 °C 1004.3 hPa NNW 4.7 km/h 8 km/h 21% 0 mm 1081.0 W/m2
13:13 32.8 °C 7.6 °C 1003.9 hPa North 6.4 km/h 12.9 km/h 21% 0 mm 1072.0 W/m2
13:18 33.1 °C 7.8 °C 1003.9 hPa NW 3.2 km/h 8 km/h 21% 0 mm 1076.0 W/m2
13:23 33.3 °C 7.3 °C 1003.9 hPa NE 3.2 km/h 9.7 km/h 20% 0 mm 1071.0 W/m2
13:28 33.3 °C 7.3 °C 1003.9 hPa NW 1.4 km/h 6.4 km/h 20% 0 mm 1083.0 W/m2
13:33 33.5 °C 7.5 °C 1003.6 hPa WSW 1.4 km/h 8 km/h 20% 0 mm 1044.0 W/m2
13:38 33.2 °C 7.2 °C 1003.6 hPa SW 1.4 km/h 6.4 km/h 20% 0 mm 867.0 W/m2
13:44 33.2 °C 7.2 °C 1003.6 hPa WSW 3.2 km/h 8 km/h 20% 0 mm 847.0 W/m2
13:49 33.4 °C 7.4 °C 1003.6 hPa NNW 3.2 km/h 12.9 km/h 20% 0 mm 1106.0 W/m2
13:54 33.8 °C 7.7 °C 1003.3 hPa WNW 1.4 km/h 12.9 km/h 20% 0 mm 1109.0 W/m2
13:59 33.7 °C 7.6 °C 1003.3 hPa SSW 4.7 km/h 14.5 km/h 20% 0 mm 1137.0 W/m2
14:04 33.5 °C 7.5 °C 1003.3 hPa West 11.1 km/h 14.5 km/h 20% 0 mm 1136.0 W/m2
14:09 33.2 °C 7.2 °C 1003.3 hPa SSE 1.4 km/h 19.3 km/h 20% 0 mm 1007.0 W/m2
14:14 33.1 °C 7.1 °C 1003.3 hPa NNW 7.9 km/h 14.5 km/h 20% 0 mm 926.0 W/m2
14:19 33.1 °C 7.1 °C 1002.9 hPa WSW 6.4 km/h 6.4 km/h 20% 0 mm 522.0 W/m2
14:24 32.8 °C 7.6 °C 1002.9 hPa WSW 4.7 km/h 6.4 km/h 21% 0 mm 563.0 W/m2
14:29 33 °C 7.1 °C 1002.9 hPa NNW 7.9 km/h 12.9 km/h 20% 0 mm 1042.0 W/m2
14:35 33.2 °C 7.2 °C 1002.6 hPa NW 9.7 km/h 9.7 km/h 20% 0 mm 476.0 W/m2
14:40 33.2 °C 7.2 °C 1002.9 hPa North 6.4 km/h 11.3 km/h 20% 0 mm 425.0 W/m2
14:45 33.3 °C 6.5 °C 1002.6 hPa NE 4.7 km/h 8 km/h 19% 0 mm 1181.0 W/m2
14:50 33.5 °C 6.7 °C 1002.3 hPa Calm   8 km/h 19% 0 mm 1218.0 W/m2
14:55 33.9 °C 7 °C 1002.6 hPa WSW 1.4 km/h 4.8 km/h 19% 0 mm 983.0 W/m2
15:00 34.6 °C 6.8 °C 1002.3 hPa SW 6.4 km/h 6.4 km/h 18% 0 mm 751.0 W/m2
15:05 34.8 °C 7 °C 1002.3 hPa West 9.7 km/h 16.1 km/h 18% 0 mm 707.0 W/m2
15:10 34.5 °C 6.7 °C 1001.9 hPa West 16.3 km/h 16.3 km/h 18% 0 mm 383.0 W/m2
15:15 33.8 °C 7 °C 1001.9 hPa SW 4.7 km/h 6.4 km/h 19% 0 mm 306.0 W/m2
15:20 33.4 °C 6.6 °C 1001.9 hPa West 3.2 km/h 9.7 km/h 19% 0 mm 225.0 W/m2
15:26 33.1 °C 6.4 °C 1001.9 hPa Calm   1.6 km/h 19% 0 mm 227.0 W/m2
15:31 32.9 °C 7 °C 1001.9 hPa NNE 4.7 km/h 8 km/h 20% 0 mm 262.0 W/m2
15:36 32.7 °C 6.8 °C 1001.9 hPa ENE 3.2 km/h 11.3 km/h 20% 0 mm 234.0 W/m2
15:41 32.4 °C 7.3 °C 1001.9 hPa North 9.7 km/h 16.1 km/h 21% 0 mm 200.0 W/m2
15:46 32.2 °C 7.1 °C 1001.9 hPa NE 16.3 km/h 16.3 km/h 21% 0 mm 158.0 W/m2
15:51 31.8 °C 6.8 °C 1001.6 hPa NE 6.4 km/h 14.5 km/h 21% 0 mm 144.0 W/m2
15:56 31.6 °C 6.6 °C 1001.6 hPa Calm   8 km/h 21% 0 mm 148.0 W/m2
16:01 31.6 °C 6.6 °C 1001.6 hPa NNE 6.4 km/h 14.5 km/h 21% 0 mm 185.0 W/m2
16:06 31.5 °C 7.2 °C 1001.6 hPa NE 6.4 km/h 8 km/h 22% 0 mm 185.0 W/m2
16:12 31.6 °C 7.3 °C 1001.6 hPa East 3.2 km/h 11.3 km/h 22% 0 mm 165.0 W/m2
16:17 31.4 °C 7.1 °C 1001.2 hPa ENE 1.4 km/h 12.9 km/h 22% 0 mm 160.0 W/m2
16:22 31.3 °C 7 °C 1001.2 hPa ENE 9.7 km/h 19.3 km/h 22% 0 mm 146.0 W/m2
16:27 31.1 °C 6.9 °C 1001.2 hPa ENE 3.2 km/h 19.3 km/h 22% 0 mm 120.0 W/m2
16:32 30.9 °C 7.4 °C 1001.2 hPa ENE 1.4 km/h 6.4 km/h 23% 0 mm 100.0 W/m2
16:37 30.7 °C 7.2 °C 1001.2 hPa NE 1.4 km/h 14.5 km/h 23% 0 mm 81.0 W/m2
16:42 30.6 °C 7.7 °C 1001.2 hPa NE 3.2 km/h 16.1 km/h 24% 0 mm 69.0 W/m2
16:47 30.4 °C 7.6 °C 1001.6 hPa Calm   8 km/h 24% 0 mm 60.0 W/m2
16:52 30.4 °C 7.6 °C 1001.6 hPa WNW 1.4 km/h 8 km/h 24% 0 mm 62.0 W/m2
16:58 30.1 °C 9 °C 1001.6 hPa NNW 6.4 km/h 9.7 km/h 27% 0 mm 88.0 W/m2
17:03 29.3 °C 9.4 °C 1001.6 hPa NNW 11.1 km/h 20.9 km/h 29% 0 mm 104.0 W/m2
17:08 28.8 °C 9.5 °C 1001.6 hPa WNW 13 km/h 19.3 km/h 30% 0 mm 97.0 W/m2
17:13 28.1 °C 9.4 °C 1001.6 hPa WNW 4.7 km/h 24.1 km/h 31% 0 mm 97.0 W/m2
17:18 27.7 °C 9.5 °C 1001.6 hPa NNW 11.1 km/h 12.9 km/h 32% 0 mm 111.0 W/m2
17:23 27.4 °C 9.2 °C 1001.6 hPa NNW 11.1 km/h 22.5 km/h 32% 0 mm 93.0 W/m2
17:28 27.3 °C 9.2 °C 1001.6 hPa NW 6.4 km/h 14.5 km/h 32% 0 mm 84.0 W/m2
17:33 27.2 °C 9.1 °C 1001.6 hPa NW 13 km/h 17.7 km/h 32% 0 mm 76.0 W/m2
17:38 27.1 °C 9 °C 1001.6 hPa North 13 km/h 22.5 km/h 32% 0 mm 70.0 W/m2
17:44 27.2 °C 8.6 °C 1001.6 hPa NNW 9.7 km/h 12.9 km/h 31% 0 mm 70.0 W/m2
17:49 27.2 °C 8.1 °C 1001.6 hPa NNW 7.9 km/h 17.7 km/h 30% 0 mm 70.0 W/m2
17:54 27.4 °C 7.8 °C 1001.6 hPa NNW 11.1 km/h 19.3 km/h 29% 0 mm 63.0 W/m2
17:59 27.6 °C 8 °C 1001.9 hPa WNW 3.2 km/h 12.9 km/h 29% 0 mm 58.0 W/m2
18:04 27.7 °C 8 °C 1001.9 hPa North 1.4 km/h 17.7 km/h 29% 0 mm 283.0 W/m2
18:09 28 °C 8.8 °C 1001.9 hPa NW 3.2 km/h 8 km/h 30% 0 mm 39.0 W/m2
18:14 28 °C 9.3 °C 1001.9 hPa North 3.2 km/h 14.5 km/h 31% 0 mm 39.0 W/m2
18:19 27.7 °C 9 °C 1001.9 hPa NW 11.1 km/h 12.9 km/h 31% 0 mm 40.0 W/m2
18:25 27.4 °C 9.2 °C 1001.9 hPa NW 1.4 km/h 8 km/h 32% 0 mm 39.0 W/m2
18:30 27.3 °C 9.2 °C 1001.9 hPa West 3.2 km/h 12.9 km/h 32% 0 mm 37.0 W/m2
18:35 27.1 °C 9.4 °C 1001.9 hPa NW 4.7 km/h 14.5 km/h 33% 0 mm 42.0 W/m2
18:40 27 °C 9.4 °C 1001.9 hPa North 9.7 km/h 14.5 km/h 33% 0 mm 47.0 W/m2
18:45 26.9 °C 8.8 °C 1001.9 hPa NNW 7.9 km/h 11.3 km/h 32% 0 mm 46.0 W/m2
18:50 27 °C 8.4 °C 1001.9 hPa NNW 1.4 km/h 4.8 km/h 31% 0 mm 44.0 W/m2
18:55 27.1 °C 8.5 °C 1001.9 hPa WNW 1.4 km/h 3.2 km/h 31% 0 mm 46.0 W/m2
19:00 27.1 °C 8 °C 1002.3 hPa NW 1.4 km/h 14.5 km/h 30% 0 mm 46.0 W/m2
19:06 27.2 °C 8.6 °C 1002.3 hPa West 1.4 km/h 8 km/h 31% 0 mm 37.0 W/m2
19:11 27.2 °C 8.6 °C 1002.3 hPa NNW 1.4 km/h 4.8 km/h 31% 0 mm 28.0 W/m2
19:17 27.2 °C 8.6 °C 1002.3 hPa Calm     31% 0 mm 23.0 W/m2
19:22 27.2 °C 8.6 °C 1002.3 hPa Calm     31% 0 mm 19.0 W/m2
19:27 27.2 °C 8.6 °C 1002.3 hPa NE 1.4 km/h 1.6 km/h 31% 0 mm 12.0 W/m2
19:32 27.2 °C 8.6 °C 1002.3 hPa Calm   3.2 km/h 31% 0 mm 11.0 W/m2
19:37 27.2 °C 8.1 °C 1002.3 hPa Calm   1.6 km/h 30% 0 mm 5.0 W/m2
19:42 27.2 °C 7.6 °C 1002.3 hPa Calm     29% 0 mm 0.0 W/m2
19:48 27.3 °C 7.7 °C 1002.6 hPa Calm   1.6 km/h 29% 0 mm 0.0 W/m2
19:54 27.3 °C 7.7 °C 1002.6 hPa West 4.7 km/h 8 km/h 29% 0 mm 0.0 W/m2
19:59 27.3 °C 8.2 °C 1002.9 hPa Calm   11.3 km/h 30% 0 mm 0.0 W/m2
20:04 27.2 °C 8.1 °C 1002.9 hPa Calm   1.6 km/h 30% 0 mm 0.0 W/m2
20:09 27.2 °C 8.6 °C 1003.3 hPa NNW 6.4 km/h 6.4 km/h 31% 0 mm 0.0 W/m2
20:14 27.1 °C 8.5 °C 1003.6 hPa North 7.9 km/h 17.7 km/h 31% 0 mm 0.0 W/m2
20:19 26.8 °C 9.2 °C 1003.6 hPa West 3.2 km/h 14.5 km/h 33% 0 mm 0.0 W/m2
20:24 26.4 °C 9.7 °C 1003.9 hPa WNW 7.9 km/h 12.9 km/h 35% 0 mm 0.0 W/m2
20:29 26 °C 10.2 °C 1003.9 hPa NNW 11.1 km/h 16.1 km/h 37% 0 mm 0.0 W/m2
20:35 25.6 °C 10.2 °C 1003.9 hPa NNE 6.4 km/h 16.1 km/h 38% 0 mm 0.0 W/m2
20:40 25.3 °C 10.3 °C 1003.9 hPa NW 3.2 km/h 9.7 km/h 39% 0 mm 0.0 W/m2
20:45 25.2 °C 10.3 °C 1003.9 hPa NNE 3.2 km/h 12.9 km/h 39% 0 mm 0.0 W/m2
20:50 25 °C 10.1 °C 1003.9 hPa NNE 6.4 km/h 11.3 km/h 39% 0 mm 0.0 W/m2
20:55 24.9 °C 10.4 °C 1003.9 hPa NNW 6.4 km/h 11.3 km/h 40% 0 mm 0.0 W/m2
21:00 24.8 °C 10.3 °C 1003.9 hPa NNE 3.2 km/h 9.7 km/h 40% 0 mm 0.0 W/m2
21:06 24.7 °C 10.2 °C 1004.3 hPa Calm   1.6 km/h 40% 0 mm 0.0 W/m2
21:11 24.7 °C 10.6 °C 1004.3 hPa North 1.4 km/h 8 km/h 41% 0 mm 0.0 W/m2
21:16 24.7 °C 10.6 °C 1004.3 hPa NNW 4.7 km/h 11.3 km/h 41% 0 mm 0.0 W/m2
21:21 24.6 °C 10.5 °C 1004.6 hPa North 4.7 km/h 8 km/h 41% 0 mm 0.0 W/m2
21:27 24.5 °C 10.4 °C 1004.6 hPa Calm   9.7 km/h 41% 0 mm 0.0 W/m2
21:32 24.4 °C 10.7 °C 1004.6 hPa NNE 1.4 km/h 8 km/h 42% 0 mm 0.0 W/m2
21:37 24.3 °C 10.6 °C 1004.6 hPa NNW 1.4 km/h 4.8 km/h 42% 0 mm 0.0 W/m2
21:42 24.2 °C 10.5 °C 1005 hPa NNW 1.4 km/h 1.6 km/h 42% 0 mm 0.0 W/m2
21:47 24.2 °C 10.5 °C 1004.6 hPa Calm   3.2 km/h 42% 0 mm 0.0 W/m2
21:52 24.1 °C 10.4 °C 1005 hPa Calm   4.8 km/h 42% 0 mm 0.0 W/m2
21:57 24 °C 10.6 °C 1005 hPa Calm     43% 0 mm 0.0 W/m2
22:02 23.9 °C 10.6 °C 1005.3 hPa Calm   1.6 km/h 43% 0 mm 0.0 W/m2
22:07 23.8 °C 10.5 °C 1005.3 hPa Calm     43% 0 mm 0.0 W/m2
22:12 23.7 °C 10.4 °C 1005.3 hPa Calm   1.6 km/h 43% 0 mm 0.0 W/m2
22:18 23.6 °C 10.3 °C 1005.6 hPa Calm     43% 0 mm 0.0 W/m2
22:23 23.4 °C 10.5 °C 1005.3 hPa Calm     44% 0 mm 0.0 W/m2
22:28 23.3 °C 10.4 °C 1005.6 hPa Calm     44% 0 mm 0.0 W/m2
22:33 23.2 °C 10.3 °C 1005.6 hPa Calm   1.6 km/h 44% 0 mm 0.0 W/m2
22:38 23.1 °C 10.2 °C 1005.6 hPa Calm     44% 0 mm 0.0 W/m2
22:43 22.9 °C 10.3 °C 1005.6 hPa Calm     45% 0 mm 0.0 W/m2
22:48 22.7 °C 10.2 °C 1005.6 hPa Calm     45% 0 mm 0.0 W/m2
22:53 22.5 °C 10 °C 1005.6 hPa Calm     45% 0 mm 0.0 W/m2
22:59 22.3 °C 10.1 °C 1005.6 hPa Calm     46% 0 mm 0.0 W/m2
23:04 22.3 °C 10.1 °C 1005.6 hPa Calm     46% 0 mm 0.0 W/m2
23:09 22.1 °C 9.9 °C 1005.6 hPa Calm     46% 0 mm 0.0 W/m2
23:14 21.9 °C 10.1 °C 1005.6 hPa Calm     47% 0 mm 0.0 W/m2
23:19 21.8 °C 10 °C 1005.6 hPa Calm     47% 0 mm 0.0 W/m2
23:25 21.6 °C 9.8 °C 1005.6 hPa Calm     47% 0 mm 0.0 W/m2
23:30 21.4 °C 9.9 °C 1005.6 hPa Calm     48% 0 mm 0.0 W/m2
23:35 21.3 °C 9.8 °C 1005.3 hPa Calm     48% 0 mm 0.0 W/m2
23:41 21.2 °C 9.8 °C 1005.3 hPa Calm     48% 0 mm 0.0 W/m2
23:46 21.1 °C 10 °C 1005.3 hPa Calm     49% 0 mm 0.0 W/m2
23:51 21 °C 9.9 °C 1005.3 hPa Calm     49% 0 mm 0.0 W/m2
23:57 20.9 °C 10.1 °C 1005.3 hPa Calm     50% 0 mm 0.0 W/m2
Olympia, Windhoek, Namibia
Compliments of Weather Underground - 3.25 mb